createdAt,value
2019-04-27T00:00:48.701Z,12.20
2019-04-27T00:03:36.524Z,12.30
2019-04-27T00:06:08.262Z,12.30
2019-04-27T00:08:43.192Z,12.30
2019-04-27T00:11:16.177Z,12.20
2019-04-27T00:13:44.746Z,12.00
2019-04-27T00:16:17.815Z,11.80
2019-04-27T00:18:56.786Z,11.70
2019-04-27T00:21:42.980Z,11.50
2019-04-27T00:24:13.425Z,11.40
2019-04-27T00:26:43.349Z,11.30
2019-04-27T00:29:13.662Z,11.20
2019-04-27T00:31:43.511Z,11.10
2019-04-27T00:34:13.314Z,11.30
2019-04-27T00:36:44.146Z,11.30
2019-04-27T00:39:17.399Z,11.30
2019-04-27T00:41:45.983Z,11.30
2019-04-27T00:44:18.942Z,11.40
2019-04-27T00:46:47.596Z,11.40
2019-04-27T00:49:16.462Z,11.40
2019-04-27T00:51:45.586Z,11.30
2019-04-27T00:54:18.144Z,11.30
2019-04-27T00:56:57.290Z,11.30
2019-04-27T00:59:43.502Z,11.10
2019-04-27T01:02:19.561Z,10.80
2019-04-27T01:04:48.534Z,10.70
2019-04-27T01:07:17.252Z,10.70
2019-04-27T01:09:45.918Z,10.70
2019-04-27T01:12:15.715Z,10.70
2019-04-27T01:14:45.130Z,10.70
2019-04-27T01:17:16.817Z,10.60
2019-04-27T01:19:45.295Z,10.60
2019-04-27T01:22:14.402Z,10.60
2019-04-27T01:24:42.943Z,10.50
2019-04-27T01:27:19.398Z,10.50
2019-04-27T01:29:54.267Z,10.40
2019-04-27T01:32:22.851Z,10.50
2019-04-27T01:34:51.543Z,10.50
2019-04-27T01:37:21.193Z,10.50
2019-04-27T01:39:51.552Z,10.40
2019-04-27T01:42:23.170Z,10.40
2019-04-27T01:44:51.708Z,10.30
2019-04-27T01:47:20.339Z,10.40
2019-04-27T01:49:49.506Z,10.30
2019-04-27T01:52:19.879Z,10.40
2019-04-27T01:54:53.022Z,10.50
2019-04-27T01:57:20.523Z,10.40
2019-04-27T01:59:59.345Z,10.40
2019-04-27T02:02:46.341Z,10.30
2019-04-27T02:08:12.456Z,10.30
2019-04-27T02:10:41.138Z,10.40
2019-04-27T02:13:09.802Z,10.50
2019-04-27T02:15:39.559Z,10.50
2019-04-27T02:18:12.750Z,10.50
2019-04-27T02:20:44.332Z,10.50
2019-04-27T02:23:19.236Z,10.60
2019-04-27T02:25:49.769Z,10.60
2019-04-27T02:32:06.402Z,10.60
2019-04-27T02:34:45.404Z,10.60
2019-04-27T02:37:14.065Z,10.60
2019-04-27T02:39:44.064Z,10.50
2019-04-27T02:42:12.716Z,10.40
2019-04-27T02:44:44.074Z,10.30
2019-04-27T02:47:16.868Z,10.30
2019-04-27T02:49:50.362Z,10.30
2019-04-27T02:52:21.293Z,10.30
2019-04-27T02:55:03.246Z,10.30
2019-04-27T02:57:35.418Z,10.30
2019-04-27T03:00:10.485Z,10.30
2019-04-27T03:02:40.986Z,10.30
2019-04-27T03:05:14.232Z,10.30
2019-04-27T03:07:53.602Z,10.30
2019-04-27T03:10:22.533Z,10.30
2019-04-27T03:12:54.684Z,10.40
2019-04-27T03:15:27.456Z,10.30
2019-04-27T03:18:14.185Z,10.40
2019-04-27T03:20:45.970Z,10.40
2019-04-27T03:23:15.321Z,10.40
2019-04-27T03:25:45.646Z,10.40
2019-04-27T03:28:15.133Z,10.50
2019-04-27T03:30:43.905Z,10.50
2019-04-27T03:33:12.738Z,10.60
2019-04-27T03:35:44.997Z,10.60
2019-04-27T03:38:14.040Z,10.60
2019-04-27T03:40:42.615Z,10.60
2019-04-27T03:43:16.057Z,10.70
2019-04-27T03:45:52.443Z,10.70
2019-04-27T03:48:20.540Z,10.70
2019-04-27T03:50:54.068Z,10.70
2019-04-27T03:53:29.325Z,10.60
2019-04-27T03:56:05.440Z,10.60
2019-04-27T03:58:39.380Z,10.50
2019-04-27T04:01:10.268Z,10.50
2019-04-27T04:03:39.348Z,10.50
2019-04-27T04:06:10.502Z,10.40
2019-04-27T04:08:39.730Z,10.40
2019-04-27T04:11:10.386Z,10.40
2019-04-27T04:13:49.471Z,10.30
2019-04-27T04:16:20.172Z,10.30
2019-04-27T04:19:00.884Z,10.30
2019-04-27T04:21:30.199Z,10.30
2019-04-27T04:24:01.033Z,10.30
2019-04-27T04:26:32.581Z,10.40
2019-04-27T04:29:00.000Z,10.40
2019-04-27T04:31:29.787Z,10.40
2019-04-27T04:33:59.740Z,10.40
2019-04-27T04:36:30.145Z,10.40
2019-04-27T04:39:00.536Z,10.50
2019-04-27T04:41:33.699Z,10.50
2019-04-27T04:44:20.264Z,10.50
2019-04-27T04:47:00.351Z,10.40
2019-04-27T04:49:29.645Z,10.50
2019-04-27T04:51:59.492Z,10.50
2019-04-27T04:54:31.334Z,10.50
2019-04-27T04:57:04.765Z,10.60
2019-04-27T04:59:33.401Z,10.50
2019-04-27T05:02:02.528Z,10.50
2019-04-27T05:04:31.376Z,10.60
2019-04-27T05:07:00.094Z,10.60
2019-04-27T05:09:37.514Z,10.60
2019-04-27T05:12:06.087Z,10.60
2019-04-27T05:14:34.686Z,10.60
2019-04-27T05:17:09.527Z,10.70
2019-04-27T05:19:38.977Z,10.70
2019-04-27T05:22:09.236Z,10.70
2019-04-27T05:24:39.372Z,10.70
2019-04-27T05:27:11.269Z,10.70
2019-04-27T05:29:39.975Z,10.80
2019-04-27T05:32:09.149Z,10.80
2019-04-27T05:34:39.437Z,10.80
2019-04-27T05:37:08.955Z,10.90
2019-04-27T05:39:38.911Z,11.00
2019-04-27T05:42:16.971Z,10.90
2019-04-27T05:49:25.863Z,10.80
2019-04-27T06:58:25.626Z,11.20
2019-04-27T08:29:48.798Z,11.40
2019-04-27T09:05:29.212Z,11.90
2019-04-27T09:44:18.402Z,12.80
2019-04-27T09:49:46.102Z,12.00
2019-04-27T09:52:26.280Z,11.50
2019-04-27T09:54:56.057Z,11.30
2019-04-27T09:57:27.445Z,11.00
2019-04-27T10:03:02.534Z,10.60
2019-04-27T10:05:46.407Z,10.50
2019-04-27T10:08:52.393Z,10.50
2019-04-27T10:15:06.870Z,10.60
2019-04-27T10:20:32.213Z,10.70
2019-04-27T10:23:00.983Z,10.80
2019-04-27T10:25:39.139Z,11.00
2019-04-27T10:28:09.927Z,11.00
2019-04-27T10:30:38.202Z,11.20
2019-04-27T10:33:17.077Z,11.50
2019-04-27T10:35:47.423Z,11.70
2019-04-27T10:38:17.268Z,11.90
2019-04-27T10:40:46.208Z,12.00
2019-04-27T10:45:56.502Z,12.10
2019-04-27T10:48:26.525Z,12.20
2019-04-27T10:51:13.930Z,12.20
2019-04-27T10:56:33.607Z,12.20
2019-04-27T10:59:09.787Z,12.40
2019-04-27T11:01:47.506Z,12.70
2019-04-27T11:04:19.984Z,13.00
2019-04-27T11:07:01.658Z,13.20
2019-04-27T11:09:40.177Z,13.20
2019-04-27T11:12:35.628Z,13.10
2019-04-27T11:15:07.751Z,13.00
2019-04-27T11:17:40.040Z,12.80
2019-04-27T11:20:11.575Z,12.40
2019-04-27T11:22:40.456Z,12.20
2019-04-27T11:25:09.571Z,11.90
2019-04-27T11:27:52.288Z,11.80
2019-04-27T11:30:22.488Z,11.80
2019-04-27T11:35:50.065Z,11.60
2019-04-27T11:38:23.402Z,11.50
2019-04-27T11:40:54.521Z,11.60
2019-04-27T11:43:26.119Z,11.80
2019-04-27T11:46:01.132Z,12.20
2019-04-27T11:48:31.316Z,12.40
2019-04-27T11:51:00.130Z,12.50
2019-04-27T11:53:36.223Z,12.60
2019-04-27T11:56:08.344Z,12.80
2019-04-27T12:01:32.540Z,13.10
2019-04-27T12:07:01.026Z,13.10
2019-04-27T12:09:32.996Z,12.80
2019-04-27T12:12:18.131Z,12.40
2019-04-27T12:14:53.096Z,12.10
2019-04-27T12:17:21.836Z,12.10
2019-04-27T12:19:50.983Z,12.20
2019-04-27T12:22:25.625Z,12.30
2019-04-27T12:26:11.255Z,12.40
2019-04-27T12:27:50.040Z,12.50
2019-04-27T12:30:46.759Z,12.60
2019-04-27T12:33:21.380Z,12.70
2019-04-27T12:35:50.093Z,12.90
2019-04-27T12:38:19.531Z,12.70
2019-04-27T12:40:56.527Z,12.70
2019-04-27T12:43:39.443Z,12.90
2019-04-27T12:49:20.504Z,12.80
2019-04-27T12:51:56.839Z,13.20
2019-04-27T12:54:36.333Z,14.30
2019-04-27T13:03:36.361Z,17.70
2019-04-27T13:05:40.328Z,18.80
2019-04-27T13:08:26.027Z,19.30
2019-04-27T13:10:59.696Z,19.30
2019-04-27T13:13:28.420Z,19.50
2019-04-27T13:15:56.941Z,20.00
2019-04-27T13:18:25.875Z,20.70
2019-04-27T13:21:02.335Z,21.00
2019-04-27T13:23:30.971Z,21.50
2019-04-27T13:25:59.549Z,21.90
2019-04-27T13:28:28.227Z,22.40
2019-04-27T13:30:57.061Z,22.70
2019-04-27T13:33:26.366Z,23.00
2019-04-27T13:36:10.452Z,22.60
2019-04-27T13:38:57.998Z,22.40
2019-04-27T13:44:17.573Z,23.00
2019-04-27T13:50:14.329Z,23.40
2019-04-27T13:52:43.079Z,23.10
2019-04-27T13:55:12.267Z,22.00
2019-04-27T13:57:50.047Z,21.50
2019-04-27T14:03:40.159Z,18.90
2019-04-27T14:06:13.513Z,18.10
2019-04-27T14:08:44.033Z,17.50
2019-04-27T14:14:11.083Z,15.30
2019-04-27T14:17:50.941Z,14.20
2019-04-27T14:19:18.887Z,13.60
2019-04-27T14:21:49.051Z,13.30
2019-04-27T14:24:29.983Z,12.70
2019-04-27T14:27:14.156Z,12.30
2019-04-27T14:29:48.938Z,12.10
2019-04-27T14:32:25.580Z,12.00
2019-04-27T14:34:54.459Z,11.90
2019-04-27T14:40:34.385Z,12.50
2019-04-27T14:50:14.440Z,14.90
2019-04-27T15:00:10.276Z,15.80
2019-04-27T15:05:58.667Z,16.50
2019-04-27T15:09:05.263Z,16.70
2019-04-27T15:11:40.389Z,16.60
2019-04-27T15:14:38.687Z,15.80
2019-04-27T15:20:32.784Z,14.90
2019-04-27T15:27:02.179Z,13.80
2019-04-27T15:29:36.055Z,13.30
2019-04-27T15:32:27.105Z,13.00
2019-04-27T15:38:13.756Z,12.80
2019-04-27T15:40:50.617Z,13.40
2019-04-27T15:43:27.368Z,14.00
2019-04-27T15:46:14.270Z,14.30
2019-04-27T15:58:38.287Z,15.50
2019-04-27T16:01:04.281Z,15.80
2019-04-27T16:03:31.389Z,15.70
2019-04-27T16:13:48.751Z,14.90
2019-04-27T16:21:28.252Z,14.10
2019-04-27T16:36:16.702Z,12.90
2019-04-27T16:39:03.774Z,12.90
2019-04-27T16:44:53.019Z,12.70
2019-04-27T16:47:24.450Z,12.70
2019-04-27T16:49:54.215Z,12.70
2019-04-27T16:52:23.077Z,12.50
2019-04-27T16:57:43.932Z,12.20
2019-04-27T17:00:18.406Z,12.20
2019-04-27T17:02:48.759Z,12.40
2019-04-27T17:05:17.584Z,12.60
2019-04-27T17:07:50.039Z,12.70
2019-04-27T17:10:25.501Z,12.70
2019-04-27T17:12:52.407Z,12.80
2019-04-27T17:18:28.504Z,12.90
2019-04-27T17:21:18.902Z,12.90
2019-04-27T17:23:42.901Z,12.90
2019-04-27T17:26:21.066Z,12.80
2019-04-27T17:28:55.183Z,12.80
2019-04-27T17:31:25.696Z,12.80
2019-04-27T17:33:56.161Z,12.80
2019-04-27T17:36:29.582Z,12.70
2019-04-27T17:42:00.214Z,12.60
2019-04-27T17:44:29.219Z,12.60
2019-04-27T17:46:58.021Z,12.60
2019-04-27T17:49:28.107Z,12.60
2019-04-27T17:51:58.561Z,12.60
2019-04-27T17:54:29.011Z,12.70
2019-04-27T17:57:00.835Z,12.70
2019-04-27T17:59:29.688Z,12.60
2019-04-27T18:02:08.897Z,12.60
2019-04-27T18:04:45.256Z,12.50
2019-04-27T18:12:51.089Z,12.20
2019-04-27T18:15:30.636Z,12.20
2019-04-27T18:18:04.921Z,12.10
2019-04-27T18:20:33.726Z,12.10
2019-04-27T18:23:15.208Z,12.00
2019-04-27T18:25:51.268Z,12.00
2019-04-27T18:28:24.055Z,11.90
2019-04-27T18:31:03.566Z,11.70
2019-04-27T18:36:14.342Z,10.60
2019-04-27T18:38:54.489Z,10.10
2019-04-27T18:41:23.439Z,9.90
2019-04-27T18:43:54.831Z,9.80
2019-04-27T18:46:24.700Z,9.80
2019-04-27T18:48:54.166Z,9.80
2019-04-27T18:51:25.132Z,9.90
2019-04-27T18:53:59.827Z,9.90
2019-04-27T18:56:25.318Z,9.90
2019-04-27T18:59:18.725Z,10.00
2019-04-27T19:01:42.767Z,10.10
2019-04-27T19:04:11.377Z,10.20
2019-04-27T19:06:40.343Z,10.30
2019-04-27T19:09:09.302Z,10.30
2019-04-27T19:14:28.230Z,10.50
2019-04-27T19:16:58.698Z,10.50
2019-04-27T19:19:28.036Z,10.50
2019-04-27T19:21:58.732Z,10.50
2019-04-27T19:24:29.308Z,10.50
2019-04-27T19:27:18.678Z,10.60
2019-04-27T19:32:45.449Z,10.50
2019-04-27T19:35:14.070Z,10.60
2019-04-27T19:37:43.164Z,10.60
2019-04-27T19:40:12.191Z,10.70
2019-04-27T19:42:41.001Z,10.70
2019-04-27T19:45:16.816Z,10.80
2019-04-27T19:47:45.454Z,10.90
2019-04-27T19:50:14.159Z,10.90
2019-04-27T19:52:46.511Z,10.90
2019-04-27T19:58:09.006Z,10.80
2019-04-27T20:00:44.131Z,10.80
2019-04-27T20:03:19.342Z,10.70
2019-04-27T20:05:48.094Z,10.70
2019-04-27T20:08:31.439Z,10.70
2019-04-27T20:10:59.969Z,10.70
2019-04-27T20:13:38.961Z,10.70
2019-04-27T20:16:11.575Z,10.70
2019-04-27T20:18:41.168Z,10.70
2019-04-27T20:21:12.201Z,10.70
2019-04-27T20:23:51.217Z,10.70
2019-04-27T20:26:19.912Z,10.60
2019-04-27T20:28:48.609Z,10.60
2019-04-27T20:34:20.931Z,10.70
2019-04-27T20:40:11.723Z,10.70
2019-04-27T20:43:07.277Z,10.60
2019-04-27T20:45:39.242Z,10.60
2019-04-27T20:54:20.978Z,10.70
2019-04-27T21:00:08.768Z,10.70
2019-04-27T21:02:55.125Z,10.70
2019-04-27T21:05:45.288Z,10.70
2019-04-27T21:08:38.015Z,10.70
2019-04-27T21:11:23.604Z,10.70
2019-04-27T21:14:02.313Z,10.70
2019-04-27T21:16:31.457Z,10.70
2019-04-27T21:19:01.737Z,10.80
2019-04-27T21:27:28.820Z,10.80
2019-04-27T21:33:04.213Z,10.80
2019-04-27T21:38:45.306Z,10.70
2019-04-27T21:41:22.696Z,10.70
2019-04-27T21:43:53.484Z,10.70
2019-04-27T21:46:26.799Z,10.60
2019-04-27T21:48:55.648Z,10.70
2019-04-27T21:51:27.198Z,10.70
2019-04-27T21:54:07.858Z,10.60
2019-04-27T22:00:03.055Z,10.70
2019-04-27T22:05:25.117Z,10.70
2019-04-27T22:08:13.180Z,10.70
2019-04-27T22:10:57.018Z,10.70
2019-04-27T22:16:38.830Z,10.70
2019-04-27T22:19:32.590Z,10.60
2019-04-27T22:25:54.299Z,10.60
2019-04-27T22:34:24.704Z,10.40
2019-04-27T22:40:32.866Z,10.30
2019-04-27T22:52:36.585Z,10.20
2019-04-27T22:55:15.420Z,10.10
2019-04-27T22:58:02.246Z,10.00
2019-04-27T23:01:08.659Z,10.10
2019-04-27T23:09:54.638Z,10.10
2019-04-27T23:12:31.915Z,10.00
2019-04-27T23:15:00.457Z,9.80
2019-04-27T23:20:42.541Z,9.70
2019-04-27T23:23:12.667Z,9.70
2019-04-27T23:28:46.160Z,9.80
2019-04-27T23:31:36.539Z,9.80
2019-04-27T23:34:21.706Z,9.70
2019-04-27T23:47:09.025Z,9.60
2019-04-27T23:49:40.749Z,9.70
2019-04-27T23:52:11.049Z,9.80
2019-04-27T23:54:42.732Z,9.80
2019-04-27T23:57:11.778Z,9.90
